Tropical Cyclones
[Index]
Season 2020-2021 Tropical Cyclone CHALANE Track Map
Season 2020-2021 Summaries (Operational Data): [AU] [SIO] [SPAC] [SH]
<<- Previous TC | 2020-2021 Season | Next TC ->>

click for intensity scale information  Lat/long Grid: Show Hide

 Date Labels: Show Hide

Operational Tropical Cyclone Data

Name: CHALANE
Number: 2107

19 Dec 2020 06:00 UTC to 30 Dec 2020 12:00 UTC

    date/time    lat    long     hPa   cat  kts
2020-12-19 06   10.4    67.6    1010         15          
2020-12-19 12   10.7    66.7    1010         15          
2020-12-19 18   11.0    65.8    1010         15          
2020-12-20 00   11.3    65.0    1010         15          
2020-12-20 06   11.5    65.2    1007         20          
2020-12-20 12   11.7    64.5    1006         20          
2020-12-20 18   12.0    63.8    1006         20          
2020-12-21 06   12.5    62.9    1007         20          
2020-12-21 12   12.7    62.4    1004         20          
2020-12-21 18   13.0    62.0    1004         20          
2020-12-22 00   13.4    62.1    1004         20          
2020-12-22 06   13.7    62.0    1004         20          
2020-12-22 12   13.9    61.7    1002         20          
2020-12-22 18   14.5    61.6    1005         20          
2020-12-23 00   15.0    61.4    1004         20          
2020-12-23 06   15.0    61.1    1003         20          
2020-12-23 12   14.9    60.8    1001         20          
2020-12-23 18   14.7    60.5    1002         25          
2020-12-24 00   14.7    60.0     999         25          
2020-12-24 06   15.4    59.2    1002         25          
2020-12-24 12   15.4    58.2    1000         25          
2020-12-24 18   15.9    57.4    1000         30          
2020-12-25 00   15.8    56.5    1001         30          
2020-12-25 06   15.9    55.6    1003         30          
2020-12-25 12   16.0    54.8    1000         30          
2020-12-25 18   16.0    53.9    1000         30          
2020-12-26 00   16.0    53.1    1000         30          
2020-12-26 06   16.2    52.5    1000         30          
2020-12-26 12   16.8    51.0    1000         30          
2020-12-26 18   17.6    49.7    1006         30          
2020-12-27 00   17.8    48.6    1006         25          
2020-12-27 06   18.2    47.6    1006         25          
2020-12-27 12   18.7    46.6    1002         25          
2020-12-27 18   19.1    45.7    1002         25          
2020-12-28 00   19.6    44.6    1002         25          
2020-12-28 06   20.0    43.4    1007         30          
2020-12-28 12   20.1    42.6     996         30          
2020-12-28 18   19.9    41.9    1003    1    35          
2020-12-29 00   19.8    41.6     999    1    40          
2020-12-29 06   19.7    39.6     995    1    40          
2020-12-29 12   19.6    38.5     990    2    50          
2020-12-29 18   19.4    37.3     991    2    55          
2020-12-30 00   19.2    36.1     991    2    55          
2020-12-30 06   19.4    34.6     997    1    40          
2020-12-30 12   19.8    32.8    1004         25          
Winds were reported as (or converted to) 10-min average.

Tropical cyclone tracks developed by Michael Bath using operational warnings and advisories and Google Maps.


Document: tropical_cyclone_chalane.htm
Updated: 7 May 2021
[Australian Severe Weather index] [Copyright Notice] [Email Contacts] [Search This Site] [Privacy Policy]


Main Index Home Page Stock Weather Photos Extreme Storms Discussion Storm News and Storm Chasing Reports Tropical Cyclones / Hurricanes / Typhoons Weather Data and Links Wild Fires / Bushfires Weather Observation Techniques Weather Picture Catalogue Tornado Pictures and Reports Stock Video Footage and DVDs for sale